Time;durP1;ratioP1;P1;durP2;ratioP2;P2;SDS_P1;SDS_P2;PMS_P1;PMS_P2;Temp;Humidity;BMP_temperature;BMP_pressure;BME280_temperature;BME280_humidity;BME280_pressure;Samples;Min_cycle;Max_cycle;Signal;HPM_P1;HPM_P2
2022/08/02 00:00:52;;;;;;;11.32;5.90;;;12.70;99.90;;;;;;7399084;19;20018;-76
2022/08/02 00:03:17;;;;;;;13.95;6.07;;;12.70;99.90;;;;;;7398517;19;20503;-75
2022/08/02 00:05:44;;;;;;;11.63;4.45;;;12.70;99.90;;;;;;7398903;19;20018;-75
2022/08/02 00:08:09;;;;;;;12.45;5.10;;;12.70;99.90;;;;;;7394130;19;20014;-75
2022/08/02 00:10:35;;;;;;;11.02;4.68;;;12.70;99.90;;;;;;7396540;19;20022;-75
2022/08/02 00:13:01;;;;;;;12.57;4.90;;;12.80;99.90;;;;;;7396950;19;20014;-75
2022/08/02 00:15:27;;;;;;;10.65;4.57;;;12.80;99.90;;;;;;7398380;19;20035;-75
2022/08/02 00:17:52;;;;;;;11.85;4.72;;;12.80;99.90;;;;;;7398141;19;20027;-75
2022/08/02 00:20:19;;;;;;;11.50;4.55;;;12.80;99.90;;;;;;7394459;19;20014;-76
2022/08/02 00:22:45;;;;;;;10.25;4.65;;;12.80;99.90;;;;;;7395039;19;20011;-76
2022/08/02 00:25:11;;;;;;;10.68;5.05;;;12.70;99.90;;;;;;7392991;19;20017;-75
2022/08/02 00:27:37;;;;;;;10.55;4.72;;;12.70;99.90;;;;;;7394000;19;20019;-76
2022/08/02 00:30:03;;;;;;;12.27;5.45;;;12.70;99.90;;;;;;7394590;19;20014;-76
2022/08/02 00:32:29;;;;;;;11.95;5.40;;;12.80;99.90;;;;;;7397735;19;20021;-76
2022/08/02 00:34:55;;;;;;;11.10;4.82;;;12.80;99.90;;;;;;7393497;19;20026;-75
2022/08/02 00:37:21;;;;;;;10.05;5.80;;;12.80;99.90;;;;;;7396113;19;20025;-75
2022/08/02 00:39:46;;;;;;;11.50;5.78;;;12.80;99.90;;;;;;7394998;19;20022;-76
2022/08/02 00:42:14;;;;;;;12.20;5.82;;;12.70;99.90;;;;;;7397935;19;20014;-76
2022/08/02 00:44:40;;;;;;;17.35;6.45;;;12.70;99.90;;;;;;7397093;19;20022;-76
2022/08/02 00:47:05;;;;;;;15.65;6.50;;;12.70;99.90;;;;;;7394910;19;20030;-76
2022/08/02 00:49:31;;;;;;;12.52;6.15;;;12.70;99.90;;;;;;7396356;19;20017;-75
2022/08/02 00:51:57;;;;;;;12.30;6.55;;;12.70;99.90;;;;;;7397560;19;20044;-76
2022/08/02 00:54:23;;;;;;;11.65;5.97;;;12.70;99.90;;;;;;7395457;19;20019;-76
2022/08/02 00:56:49;;;;;;;10.35;6.55;;;12.70;99.90;;;;;;7388446;19;20114;-76
2022/08/02 00:59:15;;;;;;;14.98;6.43;;;12.60;99.90;;;;;;7396230;19;20081;-76
2022/08/02 01:01:41;;;;;;;13.32;6.47;;;12.70;99.90;;;;;;7395138;19;20398;-76
2022/08/02 01:04:08;;;;;;;10.98;6.57;;;12.60;99.90;;;;;;7395915;19;20030;-76
2022/08/02 01:06:36;;;;;;;13.18;5.90;;;12.60;99.90;;;;;;7395255;19;20113;-76
2022/08/02 01:09:03;;;;;;;13.38;5.63;;;12.60;99.90;;;;;;7397233;19;20073;-76
2022/08/02 01:11:29;;;;;;;11.10;5.88;;;12.60;99.90;;;;;;7396093;19;20022;-76
2022/08/02 01:14:02;;;;;;;10.13;6.22;;;12.50;99.90;;;;;;7393483;19;20014;-76
2022/08/02 01:16:32;;;;;;;13.57;6.25;;;12.40;99.90;;;;;;7394897;19;20014;-76
2022/08/02 01:19:34;;;;;;;11.38;6.20;;;12.40;99.90;;;;;;7396507;19;20023;-76
2022/08/02 01:22:31;;;;;;;10.57;5.80;;;12.30;99.90;;;;;;7393391;19;20035;-76
2022/08/02 01:25:12;;;;;;;11.82;5.80;;;12.20;99.90;;;;;;7393525;19;20015;-76
2022/08/02 01:27:58;;;;;;;10.65;5.50;;;12.30;99.90;;;;;;7394008;19;20070;-76
2022/08/02 01:30:25;;;;;;;8.95;5.03;;;12.20;99.90;;;;;;7393611;19;20029;-76
2022/08/02 01:32:59;;;;;;;11.82;6.15;;;12.30;99.90;;;;;;7394288;19;20018;-76
2022/08/02 01:35:33;;;;;;;11.43;5.95;;;12.30;99.90;;;;;;7394564;19;20013;-76
2022/08/02 01:38:13;;;;;;;15.60;6.32;;;12.20;99.90;;;;;;7396181;19;20023;-76
2022/08/02 01:40:43;;;;;;;11.18;5.72;;;12.20;99.90;;;;;;7396215;19;20031;-76
2022/08/02 01:43:10;;;;;;;11.13;6.85;;;12.10;99.90;;;;;;7396681;19;20007;-76
2022/08/02 01:45:40;;;;;;;11.07;5.80;;;12.00;99.90;;;;;;7400403;19;20019;-76
2022/08/02 01:48:09;;;;;;;10.27;6.15;;;12.00;99.90;;;;;;7397296;19;20020;-76
2022/08/02 01:50:36;;;;;;;9.68;6.22;;;12.00;99.90;;;;;;7403388;19;20031;-76
2022/08/02 01:53:07;;;;;;;10.85;6.75;;;11.90;99.90;;;;;;7404025;19;20018;-76
2022/08/02 01:55:40;;;;;;;11.88;6.22;;;11.90;99.90;;;;;;7399655;19;20030;-76
2022/08/02 01:58:06;;;;;;;12.77;6.72;;;11.80;99.90;;;;;;7400354;19;20476;-76
2022/08/02 02:00:38;;;;;;;14.15;6.60;;;11.80;99.90;;;;;;7402146;19;20025;-76
2022/08/02 02:03:07;;;;;;;10.85;6.15;;;11.70;99.90;;;;;;7403200;19;21097;-76
2022/08/02 02:05:35;;;;;;;13.95;7.07;;;11.70;99.90;;;;;;7402355;19;20483;-75
2022/08/02 02:08:04;;;;;;;11.18;5.80;;;11.70;99.90;;;;;;7400974;19;20015;-75
2022/08/02 02:10:33;;;;;;;12.60;6.80;;;11.70;99.90;;;;;;7398453;19;20402;-75
2022/08/02 02:13:13;;;;;;;10.40;6.82;;;11.70;99.90;;;;;;7401878;19;20485;-75
2022/08/02 02:15:43;;;;;;;14.60;6.57;;;11.70;99.90;;;;;;7400003;19;20025;-75
2022/08/02 02:18:11;;;;;;;14.10;6.35;;;11.70;99.90;;;;;;7403237;19;20011;-75
2022/08/02 02:20:37;;;;;;;12.93;6.60;;;11.60;99.90;;;;;;7396709;19;20011;-75
2022/08/02 02:23:04;;;;;;;11.93;6.65;;;11.70;99.90;;;;;;7401678;19;20022;-76
2022/08/02 02:25:30;;;;;;;14.68;7.13;;;11.70;99.90;;;;;;7399782;19;20028;-75
2022/08/02 02:28:05;;;;;;;13.75;6.88;;;11.80;99.90;;;;;;7398363;19;20011;-75
2022/08/02 02:30:32;;;;;;;14.07;7.00;;;11.70;99.90;;;;;;7400989;19;20018;-75
2022/08/02 02:33:00;;;;;;;13.77;6.88;;;11.70;99.90;;;;;;7400894;19;20018;-75
2022/08/02 02:35:35;;;;;;;13.40;7.00;;;11.70;99.90;;;;;;7398194;19;20010;-76
2022/08/02 02:38:03;;;;;;;12.63;7.15;;;11.70;99.90;;;;;;7398656;19;20070;-75
2022/08/02 02:40:30;;;;;;;14.05;6.93;;;11.70;99.90;;;;;;7397627;19;20551;-75
2022/08/02 02:42:58;;;;;;;14.15;6.90;;;11.70;99.90;;;;;;7400654;19;20357;-75
2022/08/02 02:45:25;;;;;;;10.85;6.47;;;11.70;99.90;;;;;;7402240;19;20093;-75
2022/08/02 02:47:53;;;;;;;13.68;7.30;;;11.60;99.90;;;;;;7397255;19;20421;-75
2022/08/02 02:50:20;;;;;;;13.93;6.93;;;11.60;99.90;;;;;;7402338;19;20018;-76
2022/08/02 02:52:47;;;;;;;16.95;7.13;;;11.60;99.90;;;;;;7399819;19;20019;-75
2022/08/02 02:55:14;;;;;;;14.73;7.82;;;11.60;99.90;;;;;;7397764;19;20017;-75
2022/08/02 02:57:40;;;;;;;14.35;6.80;;;11.50;99.90;;;;;;7397166;19;20011;-75
2022/08/02 03:00:10;;;;;;;15.68;7.10;;;11.60;99.90;;;;;;7396783;19;20006;-76
2022/08/02 03:02:38;;;;;;;13.80;6.80;;;11.50;99.90;;;;;;7401791;19;20033;-76
2022/08/02 03:05:06;;;;;;;11.63;6.63;;;11.60;99.90;;;;;;7398237;19;20025;-75
2022/08/02 03:07:33;;;;;;;11.82;7.38;;;11.60;99.90;;;;;;7399749;19;20133;-76
2022/08/02 03:10:00;;;;;;;14.10;6.78;;;11.60;99.90;;;;;;7399842;19;20380;-75
2022/08/02 03:12:26;;;;;;;9.70;6.28;;;11.60;99.90;;;;;;7396226;19;20015;-75
2022/08/02 03:14:53;;;;;;;16.45;7.25;;;11.60;99.90;;;;;;7400418;19;20018;-75
2022/08/02 03:17:19;;;;;;;14.70;7.05;;;11.60;99.90;;;;;;7399108;19;20026;-75
2022/08/02 03:19:45;;;;;;;11.88;6.80;;;11.60;99.90;;;;;;7400114;19;20041;-75
2022/08/02 03:22:11;;;;;;;10.80;6.70;;;11.50;99.90;;;;;;7399046;19;20014;-75
2022/08/02 03:24:38;;;;;;;12.05;6.57;;;11.50;99.90;;;;;;7399796;19;20371;-75
2022/08/02 03:27:03;;;;;;;10.85;6.72;;;11.50;99.90;;;;;;7395699;19;20014;-75
2022/08/02 03:29:29;;;;;;;12.35;6.60;;;11.50;99.90;;;;;;7400417;19;20015;-75
2022/08/02 03:31:56;;;;;;;11.82;6.90;;;11.50;99.90;;;;;;7400378;19;20021;-75
2022/08/02 03:34:22;;;;;;;15.30;6.90;;;11.60;99.90;;;;;;7400397;19;20026;-75
2022/08/02 03:36:53;;;;;;;16.85;7.57;;;11.60;99.90;;;;;;7394577;19;20021;-75
2022/08/02 03:39:20;;;;;;;16.98;7.22;;;11.50;99.90;;;;;;7398611;19;20026;-75
2022/08/02 03:41:48;;;;;;;13.27;6.85;;;11.50;99.90;;;;;;7399236;19;20028;-75
2022/08/02 03:44:15;;;;;;;14.93;7.10;;;11.50;99.90;;;;;;7399905;19;20024;-75
2022/08/02 03:46:42;;;;;;;14.40;7.68;;;11.50;99.90;;;;;;7398031;19;20015;-75
2022/08/02 03:49:09;;;;;;;12.85;6.35;;;11.50;99.90;;;;;;7398282;19;20028;-75
2022/08/02 03:51:35;;;;;;;12.93;7.47;;;11.40;99.90;;;;;;7397729;19;20018;-75
2022/08/02 03:54:02;;;;;;;12.35;6.55;;;11.40;99.90;;;;;;7399360;19;20047;-75
2022/08/02 03:56:28;;;;;;;13.20;7.20;;;11.40;99.90;;;;;;7398399;19;20015;-75
2022/08/02 03:59:12;;;;;;;10.65;7.00;;;11.30;99.90;;;;;;7397567;19;20035;-75
2022/08/02 04:01:38;;;;;;;12.52;6.90;;;11.30;99.90;;;;;;7398801;19;20427;-75
2022/08/02 04:04:05;;;;;;;13.65;7.20;;;11.30;99.90;;;;;;7397183;19;20498;-75
2022/08/02 04:06:31;;;;;;;14.43;7.38;;;11.20;99.90;;;;;;7395876;19;20015;-75
2022/08/02 04:08:57;;;;;;;13.65;6.53;;;11.20;99.90;;;;;;7397475;19;20021;-75
2022/08/02 04:11:32;;;;;;;14.45;6.70;;;11.20;99.90;;;;;;7398694;19;20380;-75
2022/08/02 04:14:06;;;;;;;15.20;6.63;;;11.20;99.90;;;;;;7396061;19;20018;-75
2022/08/02 04:16:37;;;;;;;15.35;6.45;;;11.20;99.90;;;;;;7395584;19;20089;-75
2022/08/02 04:19:05;;;;;;;13.68;6.43;;;11.30;99.90;;;;;;7397929;19;20587;-75
2022/08/02 04:21:35;;;;;;;14.68;7.13;;;11.40;99.90;;;;;;7396386;19;20018;-75
2022/08/02 04:24:03;;;;;;;15.20;7.65;;;11.50;99.90;;;;;;7398098;19;20539;-75
2022/08/02 04:26:33;;;;;;;12.30;5.90;;;11.50;99.90;;;;;;7394600;19;20429;-74
2022/08/02 04:28:59;;;;;;;13.32;6.70;;;11.50;99.90;;;;;;7396635;19;20042;-75
2022/08/02 04:31:25;;;;;;;14.70;6.63;;;11.60;99.90;;;;;;7397467;19;20026;-75
2022/08/02 04:33:51;;;;;;;17.23;6.75;;;11.70;99.90;;;;;;7395213;19;20015;-75
2022/08/02 04:36:17;;;;;;;13.43;6.80;;;11.70;99.90;;;;;;7391873;19;20499;-74
2022/08/02 04:38:43;;;;;;;11.95;6.72;;;11.80;99.90;;;;;;7396844;19;20010;-75
2022/08/02 04:41:09;;;;;;;16.40;6.28;;;11.80;99.90;;;;;;7396292;19;20030;-75
2022/08/02 04:43:35;;;;;;;11.90;5.45;;;11.90;99.90;;;;;;7394877;19;20020;-75
2022/08/02 04:46:02;;;;;;;14.23;6.60;;;11.90;99.90;;;;;;7394981;19;20022;-75
2022/08/02 04:48:28;;;;;;;10.52;5.15;;;12.00;99.90;;;;;;7395950;19;20500;-74
2022/08/02 04:50:54;;;;;;;11.48;6.10;;;12.00;99.90;;;;;;7398152;19;20018;-75
2022/08/02 04:53:20;;;;;;;8.23;4.18;;;12.10;99.90;;;;;;7394260;19;20044;-75
2022/08/02 04:55:46;;;;;;;13.45;7.00;;;12.20;99.90;;;;;;7393930;19;20077;-75
2022/08/02 04:58:13;;;;;;;15.93;6.75;;;12.30;99.90;;;;;;7395716;19;20029;-75
2022/08/02 05:00:39;;;;;;;14.88;7.03;;;12.40;99.90;;;;;;7392625;19;20014;-75
2022/08/02 05:03:05;;;;;;;13.82;6.72;;;12.40;99.90;;;;;;7397946;19;20026;-74
2022/08/02 05:05:32;;;;;;;13.98;7.10;;;12.50;99.90;;;;;;7395530;19;20518;-75
2022/08/02 05:07:58;;;;;;;16.88;7.82;;;12.50;99.90;;;;;;7395136;19;20017;-75
2022/08/02 05:10:24;;;;;;;14.18;7.25;;;12.40;99.90;;;;;;7395361;19;20011;-75
2022/08/02 05:12:49;;;;;;;15.93;7.68;;;12.40;99.90;;;;;;7396619;19;20019;-77
2022/08/02 05:15:17;;;;;;;12.63;6.00;;;12.40;99.90;;;;;;7393931;19;20437;-76
2022/08/02 05:17:44;;;;;;;51.70;14.52;;;12.60;99.90;;;;;;7395056;19;20490;-78
2022/08/02 05:20:12;;;;;;;14.68;7.10;;;12.70;99.90;;;;;;7392789;19;20022;-77
2022/08/02 05:22:39;;;;;;;15.07;7.70;;;12.70;99.90;;;;;;7394554;19;20018;-77
2022/08/02 05:25:05;;;;;;;15.20;7.28;;;12.70;99.90;;;;;;7392606;19;20014;-78
2022/08/02 05:27:32;;;;;;;13.85;7.13;;;12.80;99.90;;;;;;7392349;19;20429;-77
2022/08/02 05:29:58;;;;;;;16.13;6.03;;;12.80;99.90;;;;;;7392875;19;20479;-78
2022/08/02 05:32:25;;;;;;;14.23;7.03;;;13.00;99.90;;;;;;7396198;19;20018;-78
2022/08/02 05:34:51;;;;;;;14.73;6.82;;;13.10;99.90;;;;;;7394534;19;20014;-78
2022/08/02 05:37:17;;;;;;;14.07;6.97;;;13.20;99.90;;;;;;7392648;19;20018;-77
2022/08/02 05:39:43;;;;;;;18.63;8.27;;;13.30;99.90;;;;;;7394785;19;20015;-77
2022/08/02 05:42:09;;;;;;;17.27;6.03;;;13.20;99.90;;;;;;7392334;19;20364;-77
2022/08/02 05:44:35;;;;;;;11.65;6.28;;;13.40;99.90;;;;;;7392958;19;20017;-77
2022/08/02 05:47:01;;;;;;;10.82;5.32;;;13.90;99.90;;;;;;7392056;19;20352;-77
2022/08/02 05:49:27;;;;;;;12.38;6.75;;;13.90;99.90;;;;;;7391724;19;20015;-77
2022/08/02 05:52:16;;;;;;;12.85;6.28;;;14.00;99.90;;;;;;7391766;19;20018;-78
2022/08/02 05:55:12;;;;;;;12.25;6.72;;;14.20;99.90;;;;;;7392191;19;20014;-78
2022/08/02 05:57:43;;;;;;;14.82;7.47;;;14.40;99.90;;;;;;7396501;19;20074;-78
2022/08/02 06:00:12;;;;;;;10.63;5.57;;;14.40;99.90;;;;;;7395413;19;20027;-78
2022/08/02 06:02:41;;;;;;;14.45;7.00;;;14.50;99.90;;;;;;7391247;19;20028;-78
2022/08/02 06:05:11;;;;;;;6.20;3.72;;;14.50;99.90;;;;;;7392073;19;20014;-78
2022/08/02 06:07:39;;;;;;;10.68;6.00;;;14.60;99.90;;;;;;7394694;19;20031;-79
2022/08/02 06:10:08;;;;;;;13.65;7.43;;;14.80;99.90;;;;;;7391817;19;20042;-78
2022/08/02 06:12:50;;;;;;;16.00;7.15;;;15.00;99.90;;;;;;7393350;19;20052;-78
2022/08/02 06:15:18;;;;;;;10.13;6.18;;;15.20;99.90;;;;;;7392037;19;20010;-78
2022/08/02 06:17:44;;;;;;;12.70;6.47;;;16.00;99.90;;;;;;7390675;19;20014;-78
2022/08/02 06:20:12;;;;;;;16.65;6.15;;;16.40;99.90;;;;;;7391135;19;20495;-78
2022/08/02 06:22:42;;;;;;;11.20;5.20;;;16.30;99.90;;;;;;7388792;19;20014;-78
2022/08/02 06:25:09;;;;;;;12.63;5.72;;;16.40;99.90;;;;;;7391098;19;20488;-78
2022/08/02 06:27:37;;;;;;;12.63;6.32;;;16.40;99.90;;;;;;7390874;19;20018;-78
2022/08/02 06:30:04;;;;;;;12.07;5.95;;;16.30;99.90;;;;;;7391556;19;20019;-78
2022/08/02 06:32:33;;;;;;;14.50;6.05;;;16.40;99.90;;;;;;7397029;19;20014;-78
2022/08/02 06:34:59;;;;;;;13.77;6.40;;;16.50;99.90;;;;;;7397081;19;20010;-78
2022/08/02 06:37:55;;;;;;;12.73;5.47;;;16.60;99.90;;;;;;7398709;19;20017;-78
2022/08/02 06:41:02;;;;;;;13.88;6.38;;;17.00;99.90;;;;;;7396618;19;20639;-77
2022/08/02 06:43:37;;;;;;;11.50;4.38;;;17.40;99.90;;;;;;7400018;19;20024;-78
2022/08/02 06:46:03;;;;;;;8.57;4.40;;;17.40;99.90;;;;;;7397405;19;20013;-78
2022/08/02 06:48:30;;;;;;;9.65;4.90;;;17.50;99.90;;;;;;7399448;19;20018;-78
2022/08/02 06:50:56;;;;;;;9.57;4.03;;;17.40;99.90;;;;;;7397180;19;20011;-78
2022/08/02 06:53:21;;;;;;;10.38;4.40;;;17.50;99.90;;;;;;7397858;19;20355;-78
2022/08/02 06:55:47;;;;;;;11.00;4.85;;;17.60;99.90;;;;;;7397142;19;20006;-78
2022/08/02 06:58:13;;;;;;;10.68;4.45;;;17.80;99.90;;;;;;7400652;19;20037;-77
2022/08/02 07:00:41;;;;;;;12.38;5.30;;;18.20;99.90;;;;;;7400540;19;20073;-78
2022/08/02 07:03:07;;;;;;;8.85;4.28;;;18.70;99.90;;;;;;7399174;19;20019;-78
2022/08/02 07:05:33;;;;;;;8.32;3.92;;;19.00;99.90;;;;;;7400196;19;20031;-78
2022/08/02 07:08:01;;;;;;;8.90;3.90;;;19.60;99.90;;;;;;7398554;19;20687;-78
2022/08/02 07:10:27;;;;;;;8.85;3.40;;;20.00;99.90;;;;;;7401591;19;20048;-78
2022/08/02 07:12:53;;;;;;;9.77;3.63;;;20.40;99.90;;;;;;7399687;19;20019;-78
2022/08/02 07:15:19;;;;;;;12.25;3.95;;;20.70;99.90;;;;;;7397518;19;20019;-78
2022/08/02 07:17:45;;;;;;;9.60;3.67;;;20.70;99.90;;;;;;7398770;19;20082;-78
2022/08/02 07:20:12;;;;;;;8.63;4.18;;;20.60;99.90;;;;;;7395669;19;20377;-78
2022/08/02 07:22:38;;;;;;;8.75;3.75;;;21.40;99.90;;;;;;7398860;19;20031;-78
2022/08/02 07:25:04;;;;;;;9.13;3.90;;;21.90;99.90;;;;;;7397037;19;20033;-78
2022/08/02 07:27:30;;;;;;;9.73;3.20;;;22.50;99.90;;;;;;7398417;19;20023;-78
2022/08/02 07:29:57;;;;;;;7.60;3.13;;;22.40;99.90;;;;;;7398702;19;20022;-78
2022/08/02 07:32:32;;;;;;;9.73;3.35;;;22.50;99.90;;;;;;7396953;19;20024;-78
2022/08/02 07:34:59;;;;;;;8.38;3.22;;;22.70;99.90;;;;;;7396167;19;20014;-78
2022/08/02 07:37:29;;;;;;;9.32;2.92;;;22.80;99.90;;;;;;7397576;19;20019;-77
2022/08/02 07:39:58;;;;;;;10.50;3.35;;;22.30;99.90;;;;;;7400362;19;20026;-78
2022/08/02 07:42:24;;;;;;;8.43;3.33;;;22.40;99.90;;;;;;7393099;19;20353;-78
2022/08/02 07:44:51;;;;;;;13.18;3.25;;;22.20;99.90;;;;;;7399986;19;20345;-78
2022/08/02 07:47:17;;;;;;;7.93;3.28;;;22.40;99.90;;;;;;7397933;19;20037;-78
2022/08/02 07:49:44;;;;;;;9.20;3.30;;;22.70;99.90;;;;;;7396979;19;20011;-78
2022/08/02 07:52:10;;;;;;;8.95;2.60;;;22.90;99.90;;;;;;7397696;19;20077;-78
2022/08/02 07:54:35;;;;;;;7.70;2.28;;;23.00;99.90;;;;;;7397539;19;20031;-78
2022/08/02 07:57:01;;;;;;;7.10;2.40;;;23.00;99.90;;;;;;7398915;19;20477;-78
2022/08/02 07:59:27;;;;;;;5.57;2.20;;;23.30;99.90;;;;;;7399461;19;20033;-77
2022/08/02 08:01:53;;;;;;;6.55;2.30;;;23.50;99.90;;;;;;7394288;19;20091;-79
2022/08/02 08:04:22;;;;;;;8.32;2.00;;;23.50;99.90;;;;;;7397605;19;20018;-78
2022/08/02 08:06:50;;;;;;;6.47;1.98;;;23.50;99.90;;;;;;7398498;19;20021;-79
2022/08/02 08:09:19;;;;;;;5.97;1.65;;;23.50;99.90;;;;;;7397459;19;20031;-78
2022/08/02 08:11:45;;;;;;;7.00;2.00;;;23.20;99.70;;;;;;7397589;19;20027;-78
2022/08/02 08:14:11;;;;;;;6.18;2.05;;;23.30;99.50;;;;;;7398384;19;20050;-78
2022/08/02 08:16:37;;;;;;;5.65;1.90;;;23.30;99.40;;;;;;7399654;19;20022;-78
2022/08/02 08:19:03;;;;;;;5.50;1.58;;;23.40;99.70;;;;;;7395564;19;20514;-79
2022/08/02 08:21:29;;;;;;;5.20;1.58;;;23.50;99.60;;;;;;7396925;19;20003;-79
2022/08/02 08:23:56;;;;;;;5.03;1.42;;;23.60;98.70;;;;;;7397655;19;20010;-77
2022/08/02 08:26:23;;;;;;;8.68;2.22;;;23.40;99.20;;;;;;7391817;19;20019;-78
2022/08/02 08:28:49;;;;;;;4.45;1.60;;;23.40;98.50;;;;;;7397866;19;20021;-78
2022/08/02 08:31:16;;;;;;;4.88;1.50;;;23.50;98.90;;;;;;7395358;19;20019;-78
2022/08/02 08:33:42;;;;;;;3.72;1.50;;;23.50;98.70;;;;;;7397607;19;20022;-78
2022/08/02 08:36:08;;;;;;;5.18;1.60;;;23.50;98.30;;;;;;7396561;19;20010;-80
2022/08/02 08:38:34;;;;;;;4.32;1.50;;;23.60;96.90;;;;;;7397309;19;20489;-78
2022/08/02 08:41:00;;;;;;;3.72;1.27;;;23.50;97.70;;;;;;7392852;19;20010;-78
2022/08/02 08:43:26;;;;;;;6.43;1.63;;;23.50;97.00;;;;;;7394986;19;20419;-78
2022/08/02 08:45:52;;;;;;;4.40;1.20;;;23.50;96.90;;;;;;7394621;19;20018;-78
2022/08/02 08:48:21;;;;;;;4.35;1.20;;;23.50;96.50;;;;;;7394936;19;20014;-78
2022/08/02 08:50:55;;;;;;;5.38;1.10;;;23.10;96.60;;;;;;7397687;19;20078;-77
2022/08/02 08:53:23;;;;;;;2.63;1.10;;;22.80;98.00;;;;;;7395203;19;20077;-78
2022/08/02 08:55:52;;;;;;;5.47;1.27;;;22.70;97.90;;;;;;7391780;19;20031;-79
2022/08/02 08:58:19;;;;;;;4.38;1.33;;;22.50;97.40;;;;;;7394264;19;20014;-78
2022/08/02 09:00:46;;;;;;;3.95;1.30;;;22.60;98.40;;;;;;7394138;19;20021;-78
2022/08/02 09:03:12;;;;;;;4.43;1.20;;;22.60;98.60;;;;;;7396085;19;20017;-78
2022/08/02 09:05:39;;;;;;;4.88;1.30;;;22.70;98.90;;;;;;7396137;19;20025;-79
2022/08/02 09:08:05;;;;;;;6.18;1.42;;;22.70;98.90;;;;;;7395755;19;20011;-79
2022/08/02 09:10:42;;;;;;;2.15;1.15;;;22.70;98.10;;;;;;7397263;19;20022;-78
2022/08/02 09:13:29;;;;;;;4.90;1.20;;;22.70;98.70;;;;;;7393535;19;20015;-79
2022/08/02 09:16:03;;;;;;;3.97;1.23;;;22.70;98.30;;;;;;7393340;19;20029;-78
2022/08/02 09:18:33;;;;;;;3.45;1.20;;;22.80;97.70;;;;;;7393560;19;20015;-78
2022/08/02 09:21:02;;;;;;;2.08;1.13;;;22.90;98.40;;;;;;7395121;19;20007;-79
2022/08/02 09:23:36;;;;;;;3.42;1.33;;;23.10;97.80;;;;;;7393623;19;20015;-78
2022/08/02 09:26:06;;;;;;;5.05;1.33;;;22.90;97.10;;;;;;7392724;19;20026;-80
2022/08/02 09:28:34;;;;;;;4.38;1.08;;;22.90;96.50;;;;;;7392767;19;20002;-79
2022/08/02 09:31:10;;;;;;;3.17;0.93;;;22.90;97.10;;;;;;7393240;19;20007;-78
2022/08/02 09:33:38;;;;;;;4.38;0.90;;;23.00;97.40;;;;;;7396345;19;20015;-78
2022/08/02 09:36:06;;;;;;;3.30;0.80;;;22.90;96.70;;;;;;7391370;19;20356;-78
2022/08/02 09:38:33;;;;;;;2.40;0.98;;;22.90;95.70;;;;;;7396624;19;20031;-79
2022/08/02 09:40:59;;;;;;;3.50;0.95;;;23.00;94.50;;;;;;7395176;19;20119;-78
2022/08/02 09:43:40;;;;;;;3.22;1.00;;;23.00;95.20;;;;;;7396985;19;20014;-78
2022/08/02 09:46:14;;;;;;;3.00;0.90;;;23.00;94.90;;;;;;7392182;19;20073;-78
2022/08/02 09:48:58;;;;;;;1.98;1.00;;;23.10;94.60;;;;;;7394245;19;20350;-78
2022/08/02 09:51:24;;;;;;;4.53;0.95;;;23.20;94.80;;;;;;7392680;19;20035;-79
2022/08/02 09:53:56;;;;;;;3.15;0.75;;;23.40;95.00;;;;;;7392237;19;20095;-78
2022/08/02 09:56:23;;;;;;;3.13;0.90;;;23.50;94.80;;;;;;7391157;19;20019;-78
2022/08/02 09:58:52;;;;;;;2.70;0.80;;;23.60;94.40;;;;;;7392308;19;20018;-78
2022/08/02 10:01:20;;;;;;;3.60;1.10;;;23.80;94.20;;;;;;7392609;19;20527;-78
2022/08/02 10:04:02;;;;;;;2.53;0.98;;;23.90;94.70;;;;;;7394685;19;20010;-79
2022/08/02 10:06:29;;;;;;;2.63;1.02;;;24.10;93.80;;;;;;7396987;19;20027;-78
2022/08/02 10:08:55;;;;;;;3.38;1.00;;;24.20;94.30;;;;;;7401665;19;20022;-78
2022/08/02 10:11:23;;;;;;;1.27;0.90;;;24.30;94.50;;;;;;7398098;19;20014;-77
2022/08/02 10:13:50;;;;;;;2.88;1.00;;;24.20;94.40;;;;;;7399983;19;20011;-79
2022/08/02 10:16:22;;;;;;;2.67;1.05;;;24.10;94.70;;;;;;7401528;19;20547;-79
2022/08/02 10:18:59;;;;;;;2.38;1.17;;;24.00;94.90;;;;;;7400422;19;20010;-80
2022/08/02 10:21:43;;;;;;;2.50;1.10;;;23.80;94.80;;;;;;7396109;19;20018;-79
2022/08/02 10:24:22;;;;;;;2.90;1.08;;;23.80;95.40;;;;;;7395928;19;20022;-78
2022/08/02 10:26:48;;;;;;;4.25;1.25;;;23.70;95.40;;;;;;7397773;19;20047;-79
2022/08/02 10:29:16;;;;;;;2.97;1.13;;;23.80;95.30;;;;;;7398999;19;20498;-77
2022/08/02 10:32:00;;;;;;;1.75;0.90;;;23.80;95.60;;;;;;7395426;19;20479;-78
2022/08/02 10:34:33;;;;;;;2.78;1.10;;;23.90;95.90;;;;;;7397723;19;20478;-79
2022/08/02 10:37:05;;;;;;;3.00;1.17;;;24.00;96.10;;;;;;7397147;19;20380;-78
2022/08/02 10:39:41;;;;;;;2.53;1.10;;;24.10;96.10;;;;;;7401144;19;20017;-78
2022/08/02 10:42:08;;;;;;;3.70;1.67;;;24.00;96.30;;;;;;7394711;19;20011;-79
2022/08/02 10:44:35;;;;;;;2.92;1.33;;;24.00;96.80;;;;;;7395261;19;20077;-80
2022/08/02 10:47:13;;;;;;;4.60;1.40;;;24.10;96.00;;;;;;7399876;19;20070;-78
2022/08/02 10:49:59;;;;;;;3.55;1.30;;;24.20;96.50;;;;;;7398107;19;20018;-80
2022/08/02 10:52:29;;;;;;;4.15;1.38;;;24.40;96.60;;;;;;7400481;19;20018;-79
2022/08/02 10:54:56;;;;;;;3.58;1.83;;;24.40;96.80;;;;;;7396057;19;20058;-79
2022/08/02 10:57:28;;;;;;;3.67;1.50;;;24.50;96.60;;;;;;7396770;19;20387;-80
2022/08/02 11:00:24;;;;;;;2.72;1.58;;;24.50;96.70;;;;;;7398115;19;20026;-79
2022/08/02 11:02:51;;;;;;;3.15;1.30;;;24.60;96.80;;;;;;7398030;19;20015;-79
2022/08/02 11:05:31;;;;;;;8.85;1.95;;;24.60;96.60;;;;;;7399655;19;20025;-79
2022/08/02 11:07:57;;;;;;;3.22;1.70;;;24.80;97.10;;;;;;7394758;19;20148;-79
2022/08/02 11:10:30;;;;;;;4.00;1.77;;;24.70;96.80;;;;;;7396564;19;20014;-79
2022/08/02 11:13:14;;;;;;;3.80;2.00;;;24.70;97.20;;;;;;7395212;19;20041;-79
2022/08/02 11:15:52;;;;;;;2.88;1.60;;;24.80;97.10;;;;;;7398505;19;20014;-79
2022/08/02 11:18:19;;;;;;;6.57;1.73;;;24.90;97.20;;;;;;7393622;19;20018;-80
2022/08/02 11:20:45;;;;;;;4.00;2.33;;;24.80;97.90;;;;;;7397115;19;20014;-78
2022/08/02 11:23:37;;;;;;;4.13;1.95;;;24.80;97.00;;;;;;7398199;19;20018;-79
2022/08/02 11:26:40;;;;;;;3.75;1.98;;;24.90;97.70;;;;;;7395177;19;20356;-79
2022/08/02 11:29:06;;;;;;;4.22;2.33;;;24.80;97.60;;;;;;7399033;19;20014;-79
2022/08/02 11:31:41;;;;;;;5.18;2.03;;;24.80;97.70;;;;;;7395035;19;20037;-78
2022/08/02 11:34:09;;;;;;;4.70;1.92;;;24.90;97.80;;;;;;7395081;19;20010;-79
2022/08/02 11:36:49;;;;;;;6.47;2.17;;;25.00;97.90;;;;;;7396791;19;20014;-79
2022/08/02 11:39:17;;;;;;;4.60;2.03;;;25.20;97.80;;;;;;7394219;19;20019;-78
2022/08/02 11:41:57;;;;;;;3.35;1.95;;;25.30;97.90;;;;;;7396213;19;20027;-81
2022/08/02 11:44:25;;;;;;;3.38;1.88;;;25.20;98.20;;;;;;7394808;19;20027;-80
2022/08/02 11:47:01;;;;;;;5.82;2.30;;;25.20;98.10;;;;;;7393681;19;20015;-80
2022/08/02 11:49:28;;;;;;;3.25;1.80;;;25.20;98.00;;;;;;7393929;19;20120;-80
2022/08/02 11:52:06;;;;;;;5.85;2.22;;;25.10;98.10;;;;;;7397544;19;20010;-80
2022/08/02 11:54:34;;;;;;;6.25;2.70;;;25.00;99.10;;;;;;7397599;19;20050;-80
2022/08/02 11:57:20;;;;;;;5.20;2.20;;;25.00;98.40;;;;;;7393705;19;20019;-80
2022/08/02 11:59:52;;;;;;;5.40;2.45;;;25.10;98.40;;;;;;7399915;19;20021;-81
2022/08/02 12:02:26;;;;;;;4.65;2.45;;;25.40;98.80;;;;;;7395251;19;20471;-81
2022/08/02 12:05:00;;;;;;;8.40;2.42;;;25.60;98.30;;;;;;7397869;19;20015;-80
2022/08/02 12:07:35;;;;;;;7.00;2.35;;;25.70;98.10;;;;;;7396199;19;20038;-80
2022/08/02 12:10:05;;;;;;;4.35;2.40;;;25.90;97.90;;;;;;7397356;19;20015;-80
2022/08/02 12:12:31;;;;;;;5.63;2.83;;;25.80;98.10;;;;;;7388368;19;20115;-80
2022/08/02 12:14:57;;;;;;;3.45;2.20;;;25.90;98.20;;;;;;7394078;19;20114;-80
2022/08/02 12:20:12;;;;;;;4.53;2.47;;;26.00;98.80;;;;;;7397309;19;20033;-79
2022/08/02 12:22:39;;;;;;;3.55;2.42;;;26.00;98.90;;;;;;7394294;19;20113;-81
2022/08/02 12:25:25;;;;;;;5.35;2.95;;;26.00;98.40;;;;;;7394931;19;20025;-81
2022/08/02 12:27:51;;;;;;;4.15;2.20;;;26.00;98.70;;;;;;7396360;19;20027;-81
2022/08/02 12:30:19;;;;;;;3.50;2.28;;;25.90;98.40;;;;;;7396895;19;20033;-80
2022/08/02 12:32:45;;;;;;;3.97;2.30;;;26.00;98.00;;;;;;7398398;19;20018;-80
2022/08/02 12:35:16;;;;;;;4.55;2.17;;;26.10;98.20;;;;;;7394771;19;20016;-81
2022/08/02 12:37:45;;;;;;;2.72;2.33;;;26.10;97.60;;;;;;7397415;19;20032;-80
2022/08/02 12:40:31;;;;;;;3.00;1.73;;;26.00;97.50;;;;;;7394890;19;20077;-80
2022/08/02 12:43:03;;;;;;;6.43;2.42;;;25.90;97.40;;;;;;7395319;19;20496;-81
2022/08/02 12:45:31;;;;;;;3.65;2.08;;;25.90;98.00;;;;;;7395785;19;20017;-80
2022/08/02 12:47:59;;;;;;;4.53;2.10;;;25.80;97.80;;;;;;7392773;19;20018;-81
2022/08/02 12:50:28;;;;;;;3.78;2.30;;;26.00;98.00;;;;;;7395704;19;20011;-81
2022/08/02 12:53:15;;;;;;;4.50;2.03;;;25.90;97.80;;;;;;7395693;19;20625;-81
2022/08/02 12:55:55;;;;;;;3.35;1.95;;;26.00;98.10;;;;;;7393959;19;20074;-80